Jarl — SFB6983 — position and weather

sailwx.info

Track history (hours):
 
Tides and Currents Weather Stations Pressure Air Temp Water Temp Dewpoint Dewpoint Depression Visibility Wind Speed Wind Dir Waves Ship Positions

Jarl

Last reported at 2015-Apr-01 21:03 UTC. Time now 2015-Apr-02 03:13 UTC.
Position N 59°21' E 018°08'.

Length 13 m.

Type: Port tender. MMSI: 265671980.

Date/timePositionNaut miles runAvg speedWind from/ knotsBaromVisibWave heightAir tempDewpointWater temp
2015-Apr-01 21:03N 59°21' E 018°08'0 0.0
2015-Apr-01 20:27N 59°21' E 018°08'0 0.1
2015-Apr-01 19:03N 59°21' E 018°08'0 0.0
2015-Apr-01 18:06N 59°21' E 018°08'0 0.0
2015-Apr-01 17:32N 59°21' E 018°08'0 0.0
2015-Apr-01 16:31N 59°21' E 018°08'0 0.0
2015-Apr-01 15:17N 59°21' E 018°08'1 0.4
2015-Apr-01 11:27N 59°19' E 018°09'2 2.1
2015-Apr-01 10:31N 59°19' E 018°06'1 0.6
2015-Apr-01 09:33N 59°19' E 018°07'2 0.9
2015-Apr-01 07:33N 59°21' E 018°09'2 1.8
2015-Apr-01 06:33N 59°19' E 018°06'2 1.6
2015-Apr-01 05:26N 59°21' E 018°08'0 0.0
2015-Mar-31 20:08N 59°21' E 018°08'0 0.1
2015-Mar-31 19:24N 59°21' E 018°08'0 0.0
2015-Mar-31 17:33N 59°21' E 018°08'0 0.0
2015-Mar-31 16:33N 59°21' E 018°08'0 0.0
2015-Mar-31 15:08N 59°21' E 018°08'0 0.2
2015-Mar-31 14:22N 59°21' E 018°08'1 0.6
2015-Mar-31 12:25N 59°20' E 018°09'2 2.2
2015-Mar-31 11:29N 59°19' E 018°06'3 1.4
2015-Mar-31 09:26N 59°21' E 018°07'0 0.1
2015-Mar-31 08:20N 59°21' E 018°07'0 0.0
2015-Mar-31 07:17N 59°21' E 018°07'0 0.0
2015-Mar-31 06:30N 59°21' E 018°07'2 0.1
2015-Mar-30 11:33N 59°19' E 018°09'2 2.4
2015-Mar-30 10:33N 59°20' E 018°05'1 0.7
2015-Mar-30 09:32N 59°19' E 018°05'0 0.2
2015-Mar-30 08:33N 59°19' E 018°06'0 0.1
2015-Mar-30 07:32N 59°19' E 018°05'0 0.3
2015-Mar-30 06:33N 59°19' E 018°06'2 1.6
2015-Mar-30 05:28N 59°21' E 018°08'  
2015-Mar-27 07:18N 59°19' E 018°09'2 2.5
2015-Mar-27 06:32N 59°19' E 018°06'2 0.1
2015-Mar-26 14:13N 59°21' E 018°08'2 3.1
2015-Mar-26 13:29N 59°19' E 018°06'0 0.2
2015-Mar-26 12:32N 59°19' E 018°06'0 0.4
2015-Mar-26 11:33N 59°19' E 018°06'2 1.5
2015-Mar-26 10:23N 59°20' E 018°09'1 0.1
2015-Mar-25 17:16N 59°21' E 018°08'0 0.1
2015-Mar-25 16:23N 59°21' E 018°08'0 0.0
2015-Mar-25 13:17N 59°21' E 018°08'0 0.3
2015-Mar-25 12:29N 59°21' E 018°07'0 0.2
2015-Mar-25 11:28N 59°21' E 018°08'0 0.0
2015-Mar-25 07:33N 59°21' E 018°08'0 0.3
2015-Mar-25 06:21N 59°21' E 018°09'0 0.1
2015-Mar-24 23:30N 59°21' E 018°08'0 0.1
2015-Mar-24 22:23N 59°21' E 018°08'0 0.0
2015-Mar-24 21:14N 59°21' E 018°08'0 0.0
2015-Mar-24 20:33N 59°21' E 018°08'0 0.0
2015-Mar-24 19:33N 59°21' E 018°08'0 0.0
2015-Mar-24 18:19N 59°21' E 018°08'0 0.0
2015-Mar-24 11:24N 59°21' E 018°08'0 0.0
2015-Mar-24 10:18N 59°21' E 018°08'0 0.0
2015-Mar-24 09:18N 59°21' E 018°08'0 0.0
2015-Mar-24 08:18N 59°21' E 018°08'0 0.2
2015-Mar-24 07:23N 59°21' E 018°08'0 0.1
2015-Mar-24 06:31N 59°21' E 018°08'0 0.0
2015-Mar-23 14:05N 59°21' E 018°08'0 0.2
2015-Mar-23 13:28N 59°21' E 018°08'0 0.0
2015-Mar-23 10:17N 59°21' E 018°08'0 0.3
2015-Mar-23 09:11N 59°21' E 018°07'0 0.1
2015-Mar-23 06:27N 59°21' E 018°08'  
Track history (hours):
 
Tides and Currents Weather Stations Pressure Air Temp Water Temp Dewpoint Dewpoint Depression Visibility Wind Speed Wind Dir Waves Ship Positions

Jarl

Last reported at 2015-Apr-01 21:03 UTC. Time now 2015-Apr-02 03:13 UTC.
Position N 59°21' E 018°08'.

Length 13 m.

Type: Port tender. MMSI: 265671980.

Date/timePositionNaut miles runAvg speedWind from/ knotsBaromVisibWave heightAir tempDewpointWater temp
2015-Apr-01 21:03N 59°21' E 018°08'0 0.0
2015-Apr-01 20:27N 59°21' E 018°08'0 0.1
2015-Apr-01 19:03N 59°21' E 018°08'0 0.0
2015-Apr-01 18:06N 59°21' E 018°08'0 0.0
2015-Apr-01 17:32N 59°21' E 018°08'0 0.0
2015-Apr-01 16:31N 59°21' E 018°08'0 0.0
2015-Apr-01 15:17N 59°21' E 018°08'1 0.4
2015-Apr-01 11:27N 59°19' E 018°09'2 2.1
2015-Apr-01 10:31N 59°19' E 018°06'1 0.6
2015-Apr-01 09:33N 59°19' E 018°07'2 0.9
2015-Apr-01 07:33N 59°21' E 018°09'2 1.8
2015-Apr-01 06:33N 59°19' E 018°06'2 1.6
2015-Apr-01 05:26N 59°21' E 018°08'0 0.0
2015-Mar-31 20:08N 59°21' E 018°08'0 0.1
2015-Mar-31 19:24N 59°21' E 018°08'0 0.0
2015-Mar-31 17:33N 59°21' E 018°08'0 0.0
2015-Mar-31 16:33N 59°21' E 018°08'0 0.0
2015-Mar-31 15:08N 59°21' E 018°08'0 0.2
2015-Mar-31 14:22N 59°21' E 018°08'1 0.6
2015-Mar-31 12:25N 59°20' E 018°09'2 2.2
2015-Mar-31 11:29N 59°19' E 018°06'3 1.4
2015-Mar-31 09:26N 59°21' E 018°07'0 0.1
2015-Mar-31 08:20N 59°21' E 018°07'0 0.0
2015-Mar-31 07:17N 59°21' E 018°07'0 0.0
2015-Mar-31 06:30N 59°21' E 018°07'2 0.1
2015-Mar-30 11:33N 59°19' E 018°09'2 2.4
2015-Mar-30 10:33N 59°20' E 018°05'1 0.7
2015-Mar-30 09:32N 59°19' E 018°05'0 0.2
2015-Mar-30 08:33N 59°19' E 018°06'0 0.1
2015-Mar-30 07:32N 59°19' E 018°05'0 0.3
2015-Mar-30 06:33N 59°19' E 018°06'2 1.6
2015-Mar-30 05:28N 59°21' E 018°08'  
2015-Mar-27 07:18N 59°19' E 018°09'2 2.5
2015-Mar-27 06:32N 59°19' E 018°06'2 0.1
2015-Mar-26 14:13N 59°21' E 018°08'2 3.1
2015-Mar-26 13:29N 59°19' E 018°06'0 0.2
2015-Mar-26 12:32N 59°19' E 018°06'0 0.4
2015-Mar-26 11:33N 59°19' E 018°06'2 1.5
2015-Mar-26 10:23N 59°20' E 018°09'1 0.1
2015-Mar-25 17:16N 59°21' E 018°08'0 0.1
2015-Mar-25 16:23N 59°21' E 018°08'0 0.0
2015-Mar-25 13:17N 59°21' E 018°08'0 0.3
2015-Mar-25 12:29N 59°21' E 018°07'0 0.2
2015-Mar-25 11:28N 59°21' E 018°08'0 0.0
2015-Mar-25 07:33N 59°21' E 018°08'0 0.3
2015-Mar-25 06:21N 59°21' E 018°09'0 0.1
2015-Mar-24 23:30N 59°21' E 018°08'0 0.1
2015-Mar-24 22:23N 59°21' E 018°08'0 0.0
2015-Mar-24 21:14N 59°21' E 018°08'0 0.0
2015-Mar-24 20:33N 59°21' E 018°08'0 0.0
2015-Mar-24 19:33N 59°21' E 018°08'0 0.0
2015-Mar-24 18:19N 59°21' E 018°08'0 0.0
2015-Mar-24 11:24N 59°21' E 018°08'0 0.0
2015-Mar-24 10:18N 59°21' E 018°08'0 0.0
2015-Mar-24 09:18N 59°21' E 018°08'0 0.0
2015-Mar-24 08:18N 59°21' E 018°08'0 0.2
2015-Mar-24 07:23N 59°21' E 018°08'0 0.1
2015-Mar-24 06:31N 59°21' E 018°08'0 0.0
2015-Mar-23 14:05N 59°21' E 018°08'0 0.2
2015-Mar-23 13:28N 59°21' E 018°08'0 0.0
2015-Mar-23 10:17N 59°21' E 018°08'0 0.3
2015-Mar-23 09:11N 59°21' E 018°07'0 0.1
2015-Mar-23 06:27N 59°21' E 018°08'  

Dump ship's entire track history